sensor_id;sensor_type;location;lat;lon;timestamp;P1;durP1;ratioP1;P2;durP2;ratioP2
16699;SDS011;8466;52.286;21.124;2023-03-05T00:01:40;13.10;;;7.67;;
16699;SDS011;8466;52.286;21.124;2023-03-05T00:04:11;12.80;;;7.20;;
16699;SDS011;8466;52.286;21.124;2023-03-05T00:06:41;9.30;;;6.27;;
16699;SDS011;8466;52.286;21.124;2023-03-05T00:09:10;12.30;;;6.20;;
16699;SDS011;8466;52.286;21.124;2023-03-05T00:11:39;11.77;;;6.07;;
16699;SDS011;8466;52.286;21.124;2023-03-05T00:14:08;11.57;;;5.97;;
16699;SDS011;8466;52.286;21.124;2023-03-05T00:16:38;9.20;;;5.97;;
16699;SDS011;8466;52.286;21.124;2023-03-05T00:19:07;10.90;;;6.23;;
16699;SDS011;8466;52.286;21.124;2023-03-05T00:21:38;10.33;;;6.37;;
16699;SDS011;8466;52.286;21.124;2023-03-05T00:24:10;9.27;;;5.87;;
16699;SDS011;8466;52.286;21.124;2023-03-05T00:26:39;9.40;;;5.77;;
16699;SDS011;8466;52.286;21.124;2023-03-05T00:29:08;9.90;;;5.20;;
16699;SDS011;8466;52.286;21.124;2023-03-05T00:31:38;10.00;;;5.67;;
16699;SDS011;8466;52.286;21.124;2023-03-05T00:34:07;11.80;;;6.53;;
16699;SDS011;8466;52.286;21.124;2023-03-05T00:36:40;8.20;;;5.40;;
16699;SDS011;8466;52.286;21.124;2023-03-05T00:39:10;11.00;;;5.43;;
16699;SDS011;8466;52.286;21.124;2023-03-05T00:41:39;7.83;;;4.97;;
16699;SDS011;8466;52.286;21.124;2023-03-05T00:44:08;9.43;;;5.73;;
16699;SDS011;8466;52.286;21.124;2023-03-05T00:46:37;9.93;;;5.47;;
16699;SDS011;8466;52.286;21.124;2023-03-05T00:49:09;10.83;;;5.27;;
16699;SDS011;8466;52.286;21.124;2023-03-05T00:51:38;10.67;;;6.10;;
16699;SDS011;8466;52.286;21.124;2023-03-05T00:54:08;9.20;;;5.47;;
16699;SDS011;8466;52.286;21.124;2023-03-05T00:56:36;8.27;;;5.60;;
16699;SDS011;8466;52.286;21.124;2023-03-05T00:59:05;9.43;;;5.73;;
16699;SDS011;8466;52.286;21.124;2023-03-05T01:01:34;13.73;;;7.27;;
16699;SDS011;8466;52.286;21.124;2023-03-05T01:04:03;11.27;;;6.03;;
16699;SDS011;8466;52.286;21.124;2023-03-05T01:06:32;10.23;;;5.83;;
16699;SDS011;8466;52.286;21.124;2023-03-05T01:09:00;13.83;;;12.23;;
16699;SDS011;8466;52.286;21.124;2023-03-05T01:11:30;13.07;;;8.03;;
16699;SDS011;8466;52.286;21.124;2023-03-05T01:13:59;21.07;;;9.30;;
16699;SDS011;8466;52.286;21.124;2023-03-05T01:16:27;22.23;;;8.67;;
16699;SDS011;8466;52.286;21.124;2023-03-05T01:18:57;26.73;;;10.10;;
16699;SDS011;8466;52.286;21.124;2023-03-05T01:21:25;24.40;;;10.10;;
16699;SDS011;8466;52.286;21.124;2023-03-05T01:23:54;24.87;;;9.60;;
16699;SDS011;8466;52.286;21.124;2023-03-05T01:26:23;22.87;;;10.07;;
16699;SDS011;8466;52.286;21.124;2023-03-05T01:28:53;23.80;;;10.37;;
16699;SDS011;8466;52.286;21.124;2023-03-05T01:31:22;20.30;;;9.47;;
16699;SDS011;8466;52.286;21.124;2023-03-05T01:33:50;18.73;;;9.17;;
16699;SDS011;8466;52.286;21.124;2023-03-05T01:36:20;21.10;;;10.03;;
16699;SDS011;8466;52.286;21.124;2023-03-05T01:38:50;18.17;;;9.97;;
16699;SDS011;8466;52.286;21.124;2023-03-05T01:41:19;19.97;;;10.03;;
16699;SDS011;8466;52.286;21.124;2023-03-05T01:43:48;19.77;;;11.10;;
16699;SDS011;8466;52.286;21.124;2023-03-05T01:46:24;18.97;;;10.07;;
16699;SDS011;8466;52.286;21.124;2023-03-05T01:48:59;19.87;;;9.63;;
16699;SDS011;8466;52.286;21.124;2023-03-05T01:51:36;16.50;;;8.17;;
16699;SDS011;8466;52.286;21.124;2023-03-05T01:54:09;16.40;;;7.93;;
16699;SDS011;8466;52.286;21.124;2023-03-05T01:56:39;14.67;;;8.10;;
16699;SDS011;8466;52.286;21.124;2023-03-05T01:59:10;13.77;;;7.90;;
16699;SDS011;8466;52.286;21.124;2023-03-05T02:01:44;13.93;;;8.03;;
16699;SDS011;8466;52.286;21.124;2023-03-05T02:04:17;16.13;;;8.30;;
16699;SDS011;8466;52.286;21.124;2023-03-05T02:06:48;15.87;;;8.20;;
16699;SDS011;8466;52.286;21.124;2023-03-05T02:09:17;15.03;;;8.77;;
16699;SDS011;8466;52.286;21.124;2023-03-05T02:11:49;13.27;;;8.10;;
16699;SDS011;8466;52.286;21.124;2023-03-05T02:14:18;16.00;;;9.20;;
16699;SDS011;8466;52.286;21.124;2023-03-05T02:16:56;15.63;;;8.10;;
16699;SDS011;8466;52.286;21.124;2023-03-05T02:19:32;14.60;;;8.50;;
16699;SDS011;8466;52.286;21.124;2023-03-05T02:22:15;18.50;;;8.47;;
16699;SDS011;8466;52.286;21.124;2023-03-05T02:24:44;20.00;;;10.30;;
16699;SDS011;8466;52.286;21.124;2023-03-05T02:27:13;17.90;;;10.77;;
16699;SDS011;8466;52.286;21.124;2023-03-05T02:29:43;19.33;;;10.30;;
16699;SDS011;8466;52.286;21.124;2023-03-05T02:32:13;16.10;;;11.23;;
16699;SDS011;8466;52.286;21.124;2023-03-05T02:34:42;17.27;;;11.30;;
16699;SDS011;8466;52.286;21.124;2023-03-05T02:37:11;19.20;;;13.70;;
16699;SDS011;8466;52.286;21.124;2023-03-05T02:39:41;19.73;;;14.37;;
16699;SDS011;8466;52.286;21.124;2023-03-05T02:42:10;18.30;;;15.43;;
16699;SDS011;8466;52.286;21.124;2023-03-05T02:44:39;16.73;;;15.00;;
16699;SDS011;8466;52.286;21.124;2023-03-05T02:47:08;18.63;;;16.63;;
16699;SDS011;8466;52.286;21.124;2023-03-05T02:49:36;27.67;;;25.27;;
16699;SDS011;8466;52.286;21.124;2023-03-05T02:52:05;17.53;;;14.33;;
16699;SDS011;8466;52.286;21.124;2023-03-05T02:54:34;20.80;;;18.77;;
16699;SDS011;8466;52.286;21.124;2023-03-05T02:57:04;23.23;;;21.00;;
16699;SDS011;8466;52.286;21.124;2023-03-05T02:59:33;28.13;;;25.83;;
16699;SDS011;8466;52.286;21.124;2023-03-05T03:02:01;27.03;;;24.87;;
16699;SDS011;8466;52.286;21.124;2023-03-05T03:04:30;24.83;;;22.57;;
16699;SDS011;8466;52.286;21.124;2023-03-05T03:06:59;23.67;;;21.53;;
16699;SDS011;8466;52.286;21.124;2023-03-05T03:09:27;25.53;;;23.07;;
16699;SDS011;8466;52.286;21.124;2023-03-05T03:11:56;25.33;;;23.10;;
16699;SDS011;8466;52.286;21.124;2023-03-05T03:14:26;23.67;;;21.37;;
16699;SDS011;8466;52.286;21.124;2023-03-05T03:16:57;26.63;;;24.30;;
16699;SDS011;8466;52.286;21.124;2023-03-05T03:19:26;23.30;;;21.07;;
16699;SDS011;8466;52.286;21.124;2023-03-05T03:21:55;25.17;;;22.77;;
16699;SDS011;8466;52.286;21.124;2023-03-05T03:24:23;25.83;;;23.60;;
16699;SDS011;8466;52.286;21.124;2023-03-05T03:26:52;23.90;;;21.77;;
16699;SDS011;8466;52.286;21.124;2023-03-05T03:29:21;24.30;;;22.10;;
16699;SDS011;8466;52.286;21.124;2023-03-05T03:31:51;23.03;;;21.10;;
16699;SDS011;8466;52.286;21.124;2023-03-05T03:34:19;21.47;;;19.37;;
16699;SDS011;8466;52.286;21.124;2023-03-05T03:36:49;21.43;;;19.43;;
16699;SDS011;8466;52.286;21.124;2023-03-05T03:39:18;17.63;;;15.30;;
16699;SDS011;8466;52.286;21.124;2023-03-05T03:41:48;19.63;;;16.77;;
16699;SDS011;8466;52.286;21.124;2023-03-05T03:44:18;16.43;;;14.77;;
16699;SDS011;8466;52.286;21.124;2023-03-05T03:46:48;17.87;;;15.13;;
16699;SDS011;8466;52.286;21.124;2023-03-05T03:49:20;17.23;;;15.40;;
16699;SDS011;8466;52.286;21.124;2023-03-05T03:51:51;16.00;;;13.27;;
16699;SDS011;8466;52.286;21.124;2023-03-05T03:54:21;17.27;;;12.63;;
16699;SDS011;8466;52.286;21.124;2023-03-05T03:56:50;15.80;;;11.10;;
16699;SDS011;8466;52.286;21.124;2023-03-05T03:59:19;13.43;;;10.70;;
16699;SDS011;8466;52.286;21.124;2023-03-05T04:01:48;15.13;;;8.80;;
16699;SDS011;8466;52.286;21.124;2023-03-05T04:04:18;13.90;;;8.97;;
16699;SDS011;8466;52.286;21.124;2023-03-05T04:06:47;12.87;;;8.53;;
16699;SDS011;8466;52.286;21.124;2023-03-05T04:09:15;12.13;;;8.33;;
16699;SDS011;8466;52.286;21.124;2023-03-05T04:11:44;14.27;;;8.83;;
16699;SDS011;8466;52.286;21.124;2023-03-05T04:14:13;16.83;;;8.33;;
16699;SDS011;8466;52.286;21.124;2023-03-05T04:16:41;13.97;;;8.30;;
16699;SDS011;8466;52.286;21.124;2023-03-05T04:19:10;14.43;;;8.40;;
16699;SDS011;8466;52.286;21.124;2023-03-05T04:21:40;13.70;;;9.53;;
16699;SDS011;8466;52.286;21.124;2023-03-05T04:24:09;15.80;;;9.27;;
16699;SDS011;8466;52.286;21.124;2023-03-05T04:26:37;12.97;;;9.53;;
16699;SDS011;8466;52.286;21.124;2023-03-05T04:29:06;15.67;;;9.60;;
16699;SDS011;8466;52.286;21.124;2023-03-05T04:31:34;12.27;;;9.77;;
16699;SDS011;8466;52.286;21.124;2023-03-05T04:34:03;14.13;;;9.73;;
16699;SDS011;8466;52.286;21.124;2023-03-05T04:36:32;12.80;;;10.57;;
16699;SDS011;8466;52.286;21.124;2023-03-05T04:39:02;15.73;;;10.17;;
16699;SDS011;8466;52.286;21.124;2023-03-05T04:41:31;15.40;;;11.30;;
16699;SDS011;8466;52.286;21.124;2023-03-05T04:44:00;16.13;;;10.80;;
16699;SDS011;8466;52.286;21.124;2023-03-05T04:46:29;15.87;;;10.87;;
16699;SDS011;8466;52.286;21.124;2023-03-05T04:48:57;15.50;;;10.77;;
16699;SDS011;8466;52.286;21.124;2023-03-05T04:51:26;14.00;;;11.23;;
16699;SDS011;8466;52.286;21.124;2023-03-05T04:53:55;15.07;;;10.93;;
16699;SDS011;8466;52.286;21.124;2023-03-05T04:56:25;15.93;;;11.33;;
16699;SDS011;8466;52.286;21.124;2023-03-05T04:58:53;16.53;;;10.83;;
16699;SDS011;8466;52.286;21.124;2023-03-05T05:01:22;15.33;;;11.43;;
16699;SDS011;8466;52.286;21.124;2023-03-05T05:03:51;17.67;;;16.08;;
16699;SDS011;8466;52.286;21.124;2023-03-05T05:06:19;38.13;;;35.43;;
16699;SDS011;8466;52.286;21.124;2023-03-05T05:08:48;14.47;;;11.97;;
16699;SDS011;8466;52.286;21.124;2023-03-05T05:11:16;13.53;;;9.80;;
16699;SDS011;8466;52.286;21.124;2023-03-05T05:13:46;16.17;;;10.97;;
16699;SDS011;8466;52.286;21.124;2023-03-05T05:16:15;17.53;;;11.13;;
16699;SDS011;8466;52.286;21.124;2023-03-05T05:18:44;15.67;;;10.13;;
16699;SDS011;8466;52.286;21.124;2023-03-05T05:21:13;18.00;;;10.30;;
16699;SDS011;8466;52.286;21.124;2023-03-05T05:23:44;16.63;;;10.80;;
16699;SDS011;8466;52.286;21.124;2023-03-05T05:26:13;16.70;;;10.70;;
16699;SDS011;8466;52.286;21.124;2023-03-05T05:28:42;16.03;;;11.73;;
16699;SDS011;8466;52.286;21.124;2023-03-05T05:31:13;14.87;;;10.87;;
16699;SDS011;8466;52.286;21.124;2023-03-05T05:33:43;15.07;;;10.63;;
16699;SDS011;8466;52.286;21.124;2023-03-05T05:36:15;14.73;;;10.20;;
16699;SDS011;8466;52.286;21.124;2023-03-05T05:38:44;11.90;;;9.27;;
16699;SDS011;8466;52.286;21.124;2023-03-05T05:41:14;11.33;;;8.70;;
16699;SDS011;8466;52.286;21.124;2023-03-05T05:43:44;13.17;;;9.13;;
16699;SDS011;8466;52.286;21.124;2023-03-05T05:46:15;14.47;;;9.50;;
16699;SDS011;8466;52.286;21.124;2023-03-05T05:48:45;12.03;;;8.77;;
16699;SDS011;8466;52.286;21.124;2023-03-05T05:51:15;15.07;;;9.23;;
16699;SDS011;8466;52.286;21.124;2023-03-05T05:53:45;12.00;;;9.27;;
16699;SDS011;8466;52.286;21.124;2023-03-05T05:56:14;11.93;;;8.17;;
16699;SDS011;8466;52.286;21.124;2023-03-05T05:58:43;13.97;;;9.33;;
16699;SDS011;8466;52.286;21.124;2023-03-05T06:01:16;13.10;;;9.13;;
16699;SDS011;8466;52.286;21.124;2023-03-05T06:03:46;9.33;;;7.70;;
16699;SDS011;8466;52.286;21.124;2023-03-05T06:06:16;11.33;;;7.17;;
16699;SDS011;8466;52.286;21.124;2023-03-05T06:08:46;13.30;;;8.97;;
16699;SDS011;8466;52.286;21.124;2023-03-05T06:11:15;12.87;;;9.37;;
16699;SDS011;8466;52.286;21.124;2023-03-05T06:13:45;11.70;;;9.80;;
16699;SDS011;8466;52.286;21.124;2023-03-05T06:16:16;15.40;;;12.40;;
16699;SDS011;8466;52.286;21.124;2023-03-05T06:18:46;26.67;;;24.52;;
16699;SDS011;8466;52.286;21.124;2023-03-05T06:21:16;26.97;;;24.73;;
16699;SDS011;8466;52.286;21.124;2023-03-05T06:23:46;14.03;;;12.60;;
16699;SDS011;8466;52.286;21.124;2023-03-05T06:26:16;15.77;;;11.90;;
16699;SDS011;8466;52.286;21.124;2023-03-05T06:28:46;9.77;;;7.40;;
16699;SDS011;8466;52.286;21.124;2023-03-05T06:31:16;10.30;;;7.27;;
16699;SDS011;8466;52.286;21.124;2023-03-05T06:33:47;12.10;;;8.70;;
16699;SDS011;8466;52.286;21.124;2023-03-05T06:36:17;9.73;;;7.27;;
16699;SDS011;8466;52.286;21.124;2023-03-05T06:38:47;12.67;;;8.00;;
16699;SDS011;8466;52.286;21.124;2023-03-05T06:41:19;13.53;;;7.40;;
16699;SDS011;8466;52.286;21.124;2023-03-05T06:43:48;9.93;;;7.13;;
16699;SDS011;8466;52.286;21.124;2023-03-05T06:46:19;8.63;;;7.53;;
16699;SDS011;8466;52.286;21.124;2023-03-05T06:48:49;10.77;;;7.63;;
16699;SDS011;8466;52.286;21.124;2023-03-05T06:51:20;10.47;;;9.33;;
16699;SDS011;8466;52.286;21.124;2023-03-05T06:53:50;13.63;;;10.30;;
16699;SDS011;8466;52.286;21.124;2023-03-05T06:56:20;11.17;;;8.33;;
16699;SDS011;8466;52.286;21.124;2023-03-05T06:58:50;10.13;;;8.27;;
16699;SDS011;8466;52.286;21.124;2023-03-05T07:01:20;13.37;;;9.60;;
16699;SDS011;8466;52.286;21.124;2023-03-05T07:03:50;14.18;;;12.95;;
16699;SDS011;8466;52.286;21.124;2023-03-05T07:06:19;20.03;;;18.47;;
16699;SDS011;8466;52.286;21.124;2023-03-05T07:08:48;18.63;;;16.73;;
16699;SDS011;8466;52.286;21.124;2023-03-05T07:11:18;21.83;;;20.10;;
16699;SDS011;8466;52.286;21.124;2023-03-05T07:13:47;21.63;;;19.83;;
16699;SDS011;8466;52.286;21.124;2023-03-05T07:16:17;16.87;;;15.37;;
16699;SDS011;8466;52.286;21.124;2023-03-05T07:18:49;17.93;;;16.53;;
16699;SDS011;8466;52.286;21.124;2023-03-05T07:21:19;16.13;;;14.63;;
16699;SDS011;8466;52.286;21.124;2023-03-05T07:23:51;19.90;;;18.30;;
16699;SDS011;8466;52.286;21.124;2023-03-05T07:26:21;20.17;;;18.57;;
16699;SDS011;8466;52.286;21.124;2023-03-05T07:28:50;21.07;;;19.20;;
16699;SDS011;8466;52.286;21.124;2023-03-05T07:31:20;17.03;;;15.47;;
16699;SDS011;8466;52.286;21.124;2023-03-05T07:33:54;36.63;;;34.03;;
16699;SDS011;8466;52.286;21.124;2023-03-05T07:36:23;22.57;;;20.17;;
16699;SDS011;8466;52.286;21.124;2023-03-05T07:38:52;30.17;;;28.00;;
16699;SDS011;8466;52.286;21.124;2023-03-05T07:41:20;19.73;;;17.83;;
16699;SDS011;8466;52.286;21.124;2023-03-05T07:43:50;25.33;;;23.53;;
16699;SDS011;8466;52.286;21.124;2023-03-05T07:46:22;24.93;;;22.97;;
16699;SDS011;8466;52.286;21.124;2023-03-05T07:48:54;24.93;;;23.10;;
16699;SDS011;8466;52.286;21.124;2023-03-05T07:51:24;23.53;;;21.67;;
16699;SDS011;8466;52.286;21.124;2023-03-05T07:53:55;25.23;;;23.33;;
16699;SDS011;8466;52.286;21.124;2023-03-05T07:56:27;25.23;;;23.30;;
16699;SDS011;8466;52.286;21.124;2023-03-05T07:59:01;25.03;;;23.00;;
16699;SDS011;8466;52.286;21.124;2023-03-05T08:01:32;21.77;;;19.87;;
16699;SDS011;8466;52.286;21.124;2023-03-05T08:04:02;27.33;;;25.00;;
16699;SDS011;8466;52.286;21.124;2023-03-05T08:06:32;20.73;;;18.93;;
16699;SDS011;8466;52.286;21.124;2023-03-05T08:09:01;20.37;;;18.30;;
16699;SDS011;8466;52.286;21.124;2023-03-05T08:11:29;18.83;;;17.27;;
16699;SDS011;8466;52.286;21.124;2023-03-05T08:13:58;20.17;;;18.47;;
16699;SDS011;8466;52.286;21.124;2023-03-05T08:16:27;19.97;;;18.43;;
16699;SDS011;8466;52.286;21.124;2023-03-05T08:18:56;20.53;;;18.90;;
16699;SDS011;8466;52.286;21.124;2023-03-05T08:21:27;28.43;;;26.27;;
16699;SDS011;8466;52.286;21.124;2023-03-05T08:23:59;21.23;;;19.37;;
16699;SDS011;8466;52.286;21.124;2023-03-05T08:26:31;27.07;;;24.57;;
16699;SDS011;8466;52.286;21.124;2023-03-05T08:29:00;27.50;;;25.40;;
16699;SDS011;8466;52.286;21.124;2023-03-05T08:31:29;24.10;;;21.97;;
16699;SDS011;8466;52.286;21.124;2023-03-05T08:33:59;29.03;;;26.93;;
16699;SDS011;8466;52.286;21.124;2023-03-05T08:36:30;33.77;;;31.40;;
16699;SDS011;8466;52.286;21.124;2023-03-05T08:38:59;35.97;;;33.43;;
16699;SDS011;8466;52.286;21.124;2023-03-05T08:41:27;28.17;;;25.57;;
16699;SDS011;8466;52.286;21.124;2023-03-05T08:43:57;29.50;;;27.23;;
16699;SDS011;8466;52.286;21.124;2023-03-05T08:46:25;39.07;;;36.33;;
16699;SDS011;8466;52.286;21.124;2023-03-05T08:48:54;43.77;;;40.63;;
16699;SDS011;8466;52.286;21.124;2023-03-05T08:51:23;38.90;;;36.20;;
16699;SDS011;8466;52.286;21.124;2023-03-05T08:53:54;36.87;;;34.10;;
16699;SDS011;8466;52.286;21.124;2023-03-05T08:56:25;32.27;;;29.73;;
16699;SDS011;8466;52.286;21.124;2023-03-05T08:58:56;31.43;;;28.77;;
16699;SDS011;8466;52.286;21.124;2023-03-05T09:01:25;34.50;;;30.80;;
16699;SDS011;8466;52.286;21.124;2023-03-05T09:03:53;28.03;;;25.13;;
16699;SDS011;8466;52.286;21.124;2023-03-05T09:06:22;31.40;;;27.33;;
16699;SDS011;8466;52.286;21.124;2023-03-05T09:08:51;28.97;;;26.37;;
16699;SDS011;8466;52.286;21.124;2023-03-05T09:11:21;43.60;;;38.93;;
16699;SDS011;8466;52.286;21.124;2023-03-05T09:13:50;23.83;;;21.57;;
16699;SDS011;8466;52.286;21.124;2023-03-05T09:16:19;25.13;;;22.53;;
16699;SDS011;8466;52.286;21.124;2023-03-05T09:18:47;25.00;;;22.40;;
16699;SDS011;8466;52.286;21.124;2023-03-05T09:21:16;28.70;;;26.13;;
16699;SDS011;8466;52.286;21.124;2023-03-05T09:23:45;29.30;;;26.47;;
16699;SDS011;8466;52.286;21.124;2023-03-05T09:26:15;20.25;;;17.05;;
16699;SDS011;8466;52.286;21.124;2023-03-05T09:28:46;90.30;;;84.27;;
16699;SDS011;8466;52.286;21.124;2023-03-05T09:31:15;66.83;;;61.80;;
16699;SDS011;8466;52.286;21.124;2023-03-05T09:33:45;43.47;;;39.73;;
16699;SDS011;8466;52.286;21.124;2023-03-05T09:36:16;36.97;;;33.57;;
16699;SDS011;8466;52.286;21.124;2023-03-05T09:38:46;33.43;;;30.47;;
16699;SDS011;8466;52.286;21.124;2023-03-05T09:41:19;30.80;;;28.17;;
16699;SDS011;8466;52.286;21.124;2023-03-05T09:43:57;14.63;;;12.27;;
16699;SDS011;8466;52.286;21.124;2023-03-05T09:46:38;72.90;;;67.68;;
16699;SDS011;8466;52.286;21.124;2023-03-05T09:49:15;88.70;;;82.97;;
16699;SDS011;8466;52.286;21.124;2023-03-05T09:51:49;52.47;;;48.77;;
16699;SDS011;8466;52.286;21.124;2023-03-05T09:54:26;21.27;;;17.35;;
16699;SDS011;8466;52.286;21.124;2023-03-05T09:57:01;21.67;;;17.95;;
16699;SDS011;8466;52.286;21.124;2023-03-05T09:59:34;42.33;;;35.60;;
16699;SDS011;8466;52.286;21.124;2023-03-05T10:02:13;104.63;;;97.03;;
16699;SDS011;8466;52.286;21.124;2023-03-05T10:04:47;113.00;;;104.70;;
16699;SDS011;8466;52.286;21.124;2023-03-05T10:07:19;85.27;;;79.20;;
16699;SDS011;8466;52.286;21.124;2023-03-05T10:09:53;27.40;;;20.45;;
16699;SDS011;8466;52.286;21.124;2023-03-05T10:12:29;48.37;;;43.20;;
16699;SDS011;8466;52.286;21.124;2023-03-05T10:15:10;110.27;;;102.90;;
16699;SDS011;8466;52.286;21.124;2023-03-05T10:23:24;85.00;;;79.40;;
16699;SDS011;8466;52.286;21.124;2023-03-05T10:29:10;44.20;;;41.07;;
16699;SDS011;8466;52.286;21.124;2023-03-05T10:31:59;30.13;;;27.87;;
16699;SDS011;8466;52.286;21.124;2023-03-05T10:34:52;27.37;;;24.97;;
16699;SDS011;8466;52.286;21.124;2023-03-05T10:40:52;20.50;;;18.60;;
16699;SDS011;8466;52.286;21.124;2023-03-05T10:43:23;21.67;;;19.67;;
16699;SDS011;8466;52.286;21.124;2023-03-05T10:45:59;27.50;;;24.80;;
16699;SDS011;8466;52.286;21.124;2023-03-05T10:48:32;15.55;;;12.52;;
16699;SDS011;8466;52.286;21.124;2023-03-05T10:51:10;20.40;;;15.82;;
16699;SDS011;8466;52.286;21.124;2023-03-05T10:53:44;28.53;;;26.17;;
16699;SDS011;8466;52.286;21.124;2023-03-05T10:56:21;89.00;;;83.20;;
16699;SDS011;8466;52.286;21.124;2023-03-05T10:58:51;86.63;;;80.57;;
16699;SDS011;8466;52.286;21.124;2023-03-05T11:01:22;88.30;;;82.17;;
16699;SDS011;8466;52.286;21.124;2023-03-05T11:03:53;29.77;;;27.02;;
16699;SDS011;8466;52.286;21.124;2023-03-05T11:06:25;88.80;;;82.60;;
16699;SDS011;8466;52.286;21.124;2023-03-05T11:09:16;89.10;;;82.90;;
16699;SDS011;8466;52.286;21.124;2023-03-05T11:12:09;60.97;;;56.37;;
16699;SDS011;8466;52.286;21.124;2023-03-05T11:14:40;49.40;;;45.23;;
16699;SDS011;8466;52.286;21.124;2023-03-05T11:17:28;33.08;;;30.38;;
16699;SDS011;8466;52.286;21.124;2023-03-05T11:23:01;79.47;;;73.27;;
16699;SDS011;8466;52.286;21.124;2023-03-05T11:25:31;78.83;;;73.10;;
16699;SDS011;8466;52.286;21.124;2023-03-05T11:28:02;68.13;;;63.07;;
16699;SDS011;8466;52.286;21.124;2023-03-05T11:30:31;62.77;;;57.90;;
16699;SDS011;8466;52.286;21.124;2023-03-05T11:33:08;69.77;;;64.43;;
16699;SDS011;8466;52.286;21.124;2023-03-05T11:35:40;48.57;;;44.47;;
16699;SDS011;8466;52.286;21.124;2023-03-05T11:38:14;46.47;;;42.93;;
16699;SDS011;8466;52.286;21.124;2023-03-05T11:40:44;44.50;;;41.23;;
16699;SDS011;8466;52.286;21.124;2023-03-05T11:43:14;68.47;;;63.47;;
16699;SDS011;8466;52.286;21.124;2023-03-05T11:45:44;45.80;;;42.13;;
16699;SDS011;8466;52.286;21.124;2023-03-05T11:48:19;76.63;;;71.55;;
16699;SDS011;8466;52.286;21.124;2023-03-05T11:50:52;30.95;;;28.45;;
16699;SDS011;8466;52.286;21.124;2023-03-05T11:53:25;39.07;;;36.10;;
16699;SDS011;8466;52.286;21.124;2023-03-05T11:55:56;97.17;;;91.03;;
16699;SDS011;8466;52.286;21.124;2023-03-05T11:58:30;79.27;;;73.97;;
16699;SDS011;8466;52.286;21.124;2023-03-05T12:01:02;29.30;;;27.23;;
16699;SDS011;8466;52.286;21.124;2023-03-05T12:03:39;32.23;;;29.80;;
16699;SDS011;8466;52.286;21.124;2023-03-05T12:06:12;100.30;;;93.90;;
16699;SDS011;8466;52.286;21.124;2023-03-05T12:08:45;88.43;;;82.80;;
16699;SDS011;8466;52.286;21.124;2023-03-05T12:11:17;33.92;;;31.58;;
16699;SDS011;8466;52.286;21.124;2023-03-05T12:13:49;35.00;;;32.67;;
16699;SDS011;8466;52.286;21.124;2023-03-05T12:16:24;26.05;;;24.15;;
16699;SDS011;8466;52.286;21.124;2023-03-05T12:19:02;35.90;;;33.17;;
16699;SDS011;8466;52.286;21.124;2023-03-05T12:21:50;72.20;;;67.60;;
16699;SDS011;8466;52.286;21.124;2023-03-05T12:24:33;63.47;;;59.33;;
16699;SDS011;8466;52.286;21.124;2023-03-05T12:30:00;47.93;;;44.27;;
16699;SDS011;8466;52.286;21.124;2023-03-05T12:35:36;56.33;;;51.17;;
16699;SDS011;8466;52.286;21.124;2023-03-05T12:38:16;60.63;;;56.50;;
16699;SDS011;8466;52.286;21.124;2023-03-05T12:44:15;56.83;;;51.97;;
16699;SDS011;8466;52.286;21.124;2023-03-05T12:49:49;59.83;;;55.20;;
16699;SDS011;8466;52.286;21.124;2023-03-05T12:52:23;41.37;;;38.23;;
16699;SDS011;8466;52.286;21.124;2023-03-05T12:55:12;48.00;;;44.33;;
16699;SDS011;8466;52.286;21.124;2023-03-05T12:57:46;67.70;;;63.45;;
16699;SDS011;8466;52.286;21.124;2023-03-05T13:00:21;18.60;;;16.67;;
16699;SDS011;8466;52.286;21.124;2023-03-05T13:02:59;37.50;;;34.50;;
16699;SDS011;8466;52.286;21.124;2023-03-05T13:05:31;45.37;;;41.93;;
16699;SDS011;8466;52.286;21.124;2023-03-05T13:08:11;48.37;;;44.97;;
16699;SDS011;8466;52.286;21.124;2023-03-05T13:10:50;35.77;;;33.40;;
16699;SDS011;8466;52.286;21.124;2023-03-05T13:13:20;38.97;;;36.20;;
16699;SDS011;8466;52.286;21.124;2023-03-05T13:15:51;34.50;;;31.80;;
16699;SDS011;8466;52.286;21.124;2023-03-05T13:18:20;42.30;;;39.43;;
16699;SDS011;8466;52.286;21.124;2023-03-05T13:20:59;44.40;;;41.40;;
16699;SDS011;8466;52.286;21.124;2023-03-05T13:23:44;34.73;;;32.23;;
16699;SDS011;8466;52.286;21.124;2023-03-05T13:26:35;31.33;;;28.67;;
16699;SDS011;8466;52.286;21.124;2023-03-05T13:29:05;42.03;;;39.03;;
16699;SDS011;8466;52.286;21.124;2023-03-05T13:31:39;36.57;;;33.70;;
16699;SDS011;8466;52.286;21.124;2023-03-05T13:34:13;42.20;;;39.33;;
16699;SDS011;8466;52.286;21.124;2023-03-05T13:36:45;36.20;;;33.63;;
16699;SDS011;8466;52.286;21.124;2023-03-05T13:39:19;24.83;;;22.98;;
16699;SDS011;8466;52.286;21.124;2023-03-05T13:42:00;20.27;;;18.57;;
16699;SDS011;8466;52.286;21.124;2023-03-05T13:44:33;51.47;;;48.00;;
16699;SDS011;8466;52.286;21.124;2023-03-05T13:47:12;51.00;;;47.73;;
16699;SDS011;8466;52.286;21.124;2023-03-05T13:49:44;59.70;;;56.10;;
16699;SDS011;8466;52.286;21.124;2023-03-05T13:52:22;36.37;;;34.10;;
16699;SDS011;8466;52.286;21.124;2023-03-05T13:54:53;34.53;;;32.23;;
16699;SDS011;8466;52.286;21.124;2023-03-05T13:57:32;40.37;;;37.70;;
16699;SDS011;8466;52.286;21.124;2023-03-05T14:00:04;27.73;;;25.80;;
16699;SDS011;8466;52.286;21.124;2023-03-05T14:02:34;27.43;;;24.83;;
16699;SDS011;8466;52.286;21.124;2023-03-05T14:05:11;64.60;;;59.70;;
16699;SDS011;8466;52.286;21.124;2023-03-05T14:07:42;57.70;;;53.17;;
16699;SDS011;8466;52.286;21.124;2023-03-05T14:10:30;54.40;;;50.60;;
16699;SDS011;8466;52.286;21.124;2023-03-05T14:13:04;34.83;;;32.33;;
16699;SDS011;8466;52.286;21.124;2023-03-05T14:16:00;31.57;;;29.37;;
16699;SDS011;8466;52.286;21.124;2023-03-05T14:18:30;27.20;;;24.93;;
16699;SDS011;8466;52.286;21.124;2023-03-05T14:21:00;36.90;;;34.30;;
16699;SDS011;8466;52.286;21.124;2023-03-05T14:23:35;34.00;;;31.43;;
16699;SDS011;8466;52.286;21.124;2023-03-05T14:26:16;36.70;;;34.07;;
16699;SDS011;8466;52.286;21.124;2023-03-05T14:28:57;30.30;;;28.03;;
16699;SDS011;8466;52.286;21.124;2023-03-05T14:31:28;32.63;;;30.00;;
16699;SDS011;8466;52.286;21.124;2023-03-05T14:33:59;31.80;;;29.63;;
16699;SDS011;8466;52.286;21.124;2023-03-05T14:36:30;28.77;;;26.60;;
16699;SDS011;8466;52.286;21.124;2023-03-05T14:39:00;30.03;;;27.53;;
16699;SDS011;8466;52.286;21.124;2023-03-05T14:41:35;30.30;;;27.97;;
16699;SDS011;8466;52.286;21.124;2023-03-05T14:44:12;25.10;;;23.07;;
16699;SDS011;8466;52.286;21.124;2023-03-05T14:46:42;23.87;;;21.87;;
16699;SDS011;8466;52.286;21.124;2023-03-05T14:49:15;26.70;;;24.23;;
16699;SDS011;8466;52.286;21.124;2023-03-05T14:51:54;27.80;;;25.70;;
16699;SDS011;8466;52.286;21.124;2023-03-05T14:54:23;25.87;;;23.90;;
16699;SDS011;8466;52.286;21.124;2023-03-05T14:57:09;30.07;;;27.77;;
16699;SDS011;8466;52.286;21.124;2023-03-05T15:00:14;27.10;;;24.53;;
16699;SDS011;8466;52.286;21.124;2023-03-05T15:02:57;34.30;;;31.17;;
16699;SDS011;8466;52.286;21.124;2023-03-05T15:05:33;33.40;;;30.60;;
16699;SDS011;8466;52.286;21.124;2023-03-05T15:11:13;26.87;;;24.57;;
16699;SDS011;8466;52.286;21.124;2023-03-05T15:13:54;34.00;;;31.23;;
16699;SDS011;8466;52.286;21.124;2023-03-05T15:16:29;31.10;;;28.43;;
16699;SDS011;8466;52.286;21.124;2023-03-05T15:19:17;33.30;;;30.60;;
16699;SDS011;8466;52.286;21.124;2023-03-05T15:21:49;36.83;;;33.83;;
16699;SDS011;8466;52.286;21.124;2023-03-05T15:24:21;52.30;;;47.07;;